Watertown Regional Airport
KATY : now visible

Airfield :











YOU CAN JOIN US ON...

 
LOGIN :

Register | Disclaimer

   EN    FR    IT 

 









Legend :    VFR   Marginal VFR   IFR   Intensive IFR   Very Intensive IFR
Visi :
Ceiling :
>= 8 km
>= 3000ft
5 to 8 km
1000 to 3000 ft
1500m to 5 km
500 to 1000 ft
800 to 1500m
200 to 500 ft
< 800m
< 200 ft
Symbols :   Thunderstorms  Fog  Heavy snow  Heavy precipitations  Wind > 20 kt






- Airport Elevation : 1749 ft
- IATA code : ATY


KATY - Watertown Regional

CURRENT METAR :
  • 280653Z AUTO 16017G27KT 10SM FEW090 SCT110 21/12 A2962 RMK AO2 PK WND 16029/0632 SLP017 T02060122

EXPIRED METARs :
  • 280553Z AUTO 15012G22KT 10SM CLR 21/12 A2964 RMK AO2 PK WND 15029/0502 RAE0457 SLP025 P0000 60000 T02060122 10261 20206 402780089 58031

TAF KATY
Valid from the 28 at 06:00 until the 29 at 06:00 UTC


280534Z 2806/2906 15010G19KT P6SM VCTS SCT070CB BKN250
FM280900 16012G21KT P6SM SCT250
FM281200 20011KT P6SM FEW250
KZMP FIR / North America



MET'MAP, your aeronautical weather chart ! - Copyright ORBIFLY December 2007 - Disclaimer

ORBIFLY MET'MAP TEAM :

Programming & Development : Alexandra Zaïnal
Original concept : Baudouin d'Aumeries
Technical & hardware support : Manuel Goepfert
Assistance : Marc-Olivier Méhu

Contact : metmap@orbifly.com




SOURCES & CREDITS :

   NOAA       Earth
Advisory